createdAt,value
2022-10-30T00:00:49.865Z,96010
2022-10-30T00:01:52.720Z,96001.2
2022-10-30T00:02:55.438Z,96001.6
2022-10-30T00:03:58.366Z,96003.5
2022-10-30T00:05:00.847Z,95997.7
2022-10-30T00:06:03.639Z,95998.1
2022-10-30T00:07:05.998Z,95998.4
2022-10-30T00:08:07.925Z,95996.2
2022-10-30T00:09:10.396Z,95998.7
2022-10-30T00:10:12.893Z,95996.7
2022-10-30T00:11:15.107Z,96000.7
2022-10-30T00:12:17.316Z,95996.3
2022-10-30T00:13:19.797Z,95999.4
2022-10-30T00:14:22.014Z,95995.7
2022-10-30T00:15:24.634Z,95997.8
2022-10-30T00:16:26.557Z,95997.1
2022-10-30T00:17:29.057Z,95998.4
2022-10-30T00:18:30.963Z,95995.8
2022-10-30T00:19:33.501Z,95999
2022-10-30T00:20:35.714Z,95997.2
2022-10-30T00:21:38.114Z,96000.2
2022-10-30T00:22:40.328Z,95995.7
2022-10-30T00:23:42.294Z,95997.4
2022-10-30T00:24:44.761Z,95993.7
2022-10-30T00:25:46.978Z,95996.8
2022-10-30T00:26:49.171Z,95997.3
2022-10-30T00:27:51.428Z,96000.8
2022-10-30T00:28:53.900Z,96000.2
2022-10-30T00:29:56.381Z,96000.4
2022-10-30T00:30:58.917Z,96003
2022-10-30T00:32:01.386Z,96001.2
2022-10-30T00:33:03.189Z,95998.1
2022-10-30T00:34:05.400Z,95998.1
2022-10-30T00:35:07.581Z,95993.7
2022-10-30T00:36:09.504Z,95995.5
2022-10-30T00:37:11.977Z,95994.7
2022-10-30T00:38:14.478Z,95994.9
2022-10-30T00:39:16.968Z,95992.6
2022-10-30T00:40:18.888Z,95996.3
2022-10-30T00:41:21.113Z,95990.3
2022-10-30T00:42:23.308Z,95993.2
2022-10-30T00:43:25.509Z,95994.8
2022-10-30T00:44:27.171Z,95994.5
2022-10-30T00:45:29.069Z,95995.8
2022-10-30T00:46:31.611Z,95992.1
2022-10-30T00:47:33.796Z,95990.1
2022-10-30T00:48:36.037Z,95993.3
2022-10-30T00:49:38.256Z,95991.3
2022-10-30T00:50:40.759Z,95991.8
2022-10-30T00:51:42.949Z,95991.6
2022-10-30T00:52:44.584Z,95991.9
2022-10-30T00:53:46.764Z,95989.3
2022-10-30T00:54:48.411Z,95983.5
2022-10-30T00:55:50.628Z,95988.4
2022-10-30T00:56:53.434Z,95985.4
2022-10-30T00:57:55.619Z,95988.2
2022-10-30T00:58:58.096Z,95988.6
2022-10-30T01:00:00.577Z,95991.9
2022-10-30T01:01:02.800Z,95990.9
2022-10-30T01:02:05.740Z,95985.4
2022-10-30T01:03:08.203Z,95987.4
2022-10-30T01:04:10.700Z,95990.2
2022-10-30T01:05:13.382Z,95990.7
2022-10-30T01:06:15.983Z,95997.2
2022-10-30T01:07:18.196Z,95996.3
2022-10-30T01:08:21.055Z,95999.6
2022-10-30T01:09:23.403Z,95997.7
2022-10-30T01:10:25.321Z,96000.3
2022-10-30T01:11:27.520Z,95998.5
2022-10-30T01:12:29.745Z,95997.6
2022-10-30T01:13:31.687Z,95997.7
2022-10-30T01:14:33.871Z,95999.1
2022-10-30T01:15:35.837Z,96005.1
2022-10-30T01:16:37.746Z,96003.6
2022-10-30T01:17:40.273Z,96000.1
2022-10-30T01:18:42.735Z,96002.3
2022-10-30T01:19:44.996Z,96005.5
2022-10-30T01:20:47.470Z,96003.3
2022-10-30T01:21:49.641Z,96006
2022-10-30T01:22:51.568Z,96003.2
2022-10-30T01:23:53.775Z,96006.1
2022-10-30T01:24:56.286Z,96003.8
2022-10-30T01:25:57.642Z,96005.3
2022-10-30T01:27:00.122Z,95999.3
2022-10-30T01:28:02.347Z,96008.8
2022-10-30T01:29:04.548Z,96003.6
2022-10-30T01:30:06.478Z,96007.9
2022-10-30T01:31:08.959Z,96005.2
2022-10-30T01:32:11.148Z,96013.3
2022-10-30T01:33:13.679Z,96008.6
2022-10-30T01:34:16.152Z,96010.4
2022-10-30T01:35:18.370Z,96011.1
2022-10-30T01:36:20.016Z,96013
2022-10-30T01:37:22.198Z,96014.8
2022-10-30T01:38:23.543Z,96014.3
2022-10-30T01:39:25.468Z,96013.2
2022-10-30T01:40:27.951Z,96014
2022-10-30T01:41:30.154Z,96015.1
2022-10-30T01:42:32.624Z,96016.2
2022-10-30T01:43:35.126Z,96011.8
2022-10-30T01:44:37.593Z,96015.7
2022-10-30T01:45:40.084Z,96016.2
2022-10-30T01:46:42.554Z,96009.5
2022-10-30T01:47:44.735Z,96015.8
2022-10-30T01:48:47.006Z,96015.4
2022-10-30T01:49:49.483Z,96012.3
2022-10-30T01:50:51.968Z,96014.9
2022-10-30T01:51:54.451Z,96014.8
2022-10-30T01:52:58.739Z,96017.5
2022-10-30T01:54:01.488Z,96014.9
2022-10-30T01:55:03.966Z,96014.4
2022-10-30T01:56:05.893Z,96014.6
2022-10-30T01:57:08.079Z,96018
2022-10-30T01:58:10.025Z,96017
2022-10-30T01:59:12.256Z,96013
2022-10-30T02:00:14.456Z,96015.3
2022-10-30T02:01:16.409Z,96013.1
2022-10-30T02:02:19.983Z,96014.6
2022-10-30T02:03:22.670Z,96015.1
2022-10-30T02:04:25.220Z,96012.1
2022-10-30T02:05:27.409Z,96010.8
2022-10-30T02:06:29.910Z,96012.7
2022-10-30T02:07:32.123Z,96018.2
2022-10-30T02:08:34.032Z,96015.1
2022-10-30T02:09:36.510Z,96015.8
2022-10-30T02:10:38.978Z,96015.6
2022-10-30T02:11:41.450Z,96015.9
2022-10-30T02:12:43.941Z,96015.7
2022-10-30T02:13:46.130Z,96015
2022-10-30T02:14:48.341Z,96011.6
2022-10-30T02:15:50.811Z,96012.3
2022-10-30T02:16:52.707Z,96014.9
2022-10-30T02:17:54.729Z,96010.5
2022-10-30T02:18:56.532Z,96009.1
2022-10-30T02:19:58.779Z,96010.9
2022-10-30T02:21:01.245Z,96011.8
2022-10-30T02:22:03.587Z,96009.1
2022-10-30T02:23:08.138Z,96007.3
2022-10-30T02:24:11.417Z,96010.1
2022-10-30T02:25:13.893Z,96004.2
2022-10-30T02:26:16.139Z,96010
2022-10-30T02:27:18.031Z,96002.9
2022-10-30T02:28:20.224Z,96007.3
2022-10-30T02:29:22.127Z,96005.9
2022-10-30T02:30:24.342Z,96007.4
2022-10-30T02:31:26.567Z,96003
2022-10-30T02:32:28.763Z,96004.2
2022-10-30T02:33:31.245Z,96002.2
2022-10-30T02:34:33.172Z,96002.6
2022-10-30T02:35:35.149Z,96006.9
2022-10-30T02:36:37.357Z,96003.1
2022-10-30T02:37:39.575Z,96004.3
2022-10-30T02:38:41.767Z,96002.2
2022-10-30T02:39:44.231Z,96004.6
2022-10-30T02:40:46.415Z,96002.5
2022-10-30T02:41:48.612Z,96002.5
2022-10-30T02:42:51.091Z,96000.5
2022-10-30T02:43:53.272Z,96003.9
2022-10-30T02:44:54.915Z,95994.5
2022-10-30T02:45:57.127Z,95997.2
2022-10-30T02:46:59.308Z,95996
2022-10-30T02:48:03.926Z,95998.3
2022-10-30T02:49:06.616Z,95993.3
2022-10-30T02:50:08.810Z,95991.9
2022-10-30T02:51:11.349Z,95984
2022-10-30T02:52:13.812Z,95984.2
2022-10-30T02:53:16.038Z,95990.4
2022-10-30T02:54:18.500Z,95987.8
2022-10-30T02:55:20.973Z,95991.5
2022-10-30T02:56:23.449Z,95990.5
2022-10-30T02:57:25.683Z,95990.1
2022-10-30T02:58:27.885Z,95992.1
2022-10-30T02:59:30.361Z,95989.6
2022-10-30T03:00:32.841Z,95994.7
2022-10-30T03:01:35.553Z,95994.8
2022-10-30T03:02:38.152Z,95994
2022-10-30T03:03:40.757Z,95995.8
2022-10-30T03:04:43.224Z,96002.6
2022-10-30T03:05:45.698Z,95997.4
2022-10-30T03:06:48.239Z,95999.6
2022-10-30T03:07:50.421Z,95998.7
2022-10-30T03:08:52.928Z,95999.5
2022-10-30T03:09:55.103Z,96000.1
2022-10-30T03:10:57.600Z,95997.7
2022-10-30T03:11:59.234Z,95998.9
2022-10-30T03:13:01.187Z,96002.4
2022-10-30T03:14:03.378Z,96002.3
2022-10-30T03:15:05.912Z,95999.1
2022-10-30T03:16:07.807Z,95997.1
2022-10-30T03:17:10.033Z,95995.9
2022-10-30T03:18:12.502Z,95997.2
2022-10-30T03:19:14.989Z,96000.3
2022-10-30T03:20:16.901Z,95996.7
2022-10-30T03:21:18.833Z,95999.2
2022-10-30T03:22:21.359Z,95995.2
2022-10-30T03:23:23.547Z,95991.7
2022-10-30T03:24:26.040Z,95989.5
2022-10-30T03:25:28.242Z,95989.2
2022-10-30T03:26:30.740Z,95987.1
2022-10-30T03:27:33.666Z,95989.3
2022-10-30T03:28:35.589Z,95987.7
2022-10-30T03:29:37.790Z,95983.7
2022-10-30T03:30:39.957Z,95982.5
2022-10-30T03:31:41.886Z,95986.7
2022-10-30T03:32:43.952Z,95985.4
2022-10-30T03:33:45.912Z,95983.1
2022-10-30T03:34:48.379Z,95983.5
2022-10-30T03:35:50.557Z,95981
2022-10-30T03:36:53.018Z,95977.6
2022-10-30T03:37:55.283Z,95978.4
2022-10-30T03:38:57.466Z,95976.4
2022-10-30T03:39:59.950Z,95977.4
2022-10-30T03:41:02.160Z,95978.6
2022-10-30T03:42:04.373Z,95978.2
2022-10-30T03:43:06.842Z,95979
2022-10-30T03:44:09.070Z,95975.4
2022-10-30T03:45:11.540Z,95971.2
2022-10-30T03:46:13.751Z,95974.3
2022-10-30T03:47:15.975Z,95974.1
2022-10-30T03:48:18.461Z,95972.6
2022-10-30T03:49:20.393Z,95973
2022-10-30T03:50:22.584Z,95972.9
2022-10-30T03:51:24.781Z,95971.8
2022-10-30T03:52:27.244Z,95973.3
2022-10-30T03:53:29.659Z,95972.8
2022-10-30T03:54:31.574Z,95975.7
2022-10-30T03:55:33.801Z,95980.6
2022-10-30T03:56:35.982Z,95980.2
2022-10-30T03:57:38.456Z,95977.9
2022-10-30T03:58:40.378Z,95979.1
2022-10-30T03:59:42.568Z,95984.5
2022-10-30T04:00:44.775Z,95985.8
2022-10-30T04:01:47.750Z,95987
2022-10-30T04:02:50.115Z,95986.2
2022-10-30T04:03:52.310Z,95986.8
2022-10-30T04:04:54.486Z,95987.8
2022-10-30T04:05:56.974Z,95987.7
2022-10-30T04:06:59.448Z,95989.4
2022-10-30T04:08:01.915Z,95986.4
2022-10-30T04:09:03.916Z,95988.1
2022-10-30T04:10:05.819Z,95987
2022-10-30T04:11:08.439Z,95985.3
2022-10-30T04:12:10.723Z,95987.7
2022-10-30T04:13:13.195Z,95986.6
2022-10-30T04:14:14.821Z,95992.1
2022-10-30T04:15:17.291Z,95984.1
2022-10-30T04:16:19.236Z,95984.2
2022-10-30T04:17:21.430Z,95987
2022-10-30T04:18:23.055Z,95986.9
2022-10-30T04:19:25.549Z,95989.5
2022-10-30T04:20:27.243Z,95987.8
2022-10-30T04:21:29.413Z,95988.7
2022-10-30T04:22:31.889Z,95988.1
2022-10-30T04:23:34.089Z,95993.1
2022-10-30T04:24:36.619Z,95989.9
2022-10-30T04:25:38.786Z,95990.8
2022-10-30T04:26:40.738Z,95988.2
2022-10-30T04:27:42.918Z,95989.9
2022-10-30T04:28:45.127Z,95987.7
2022-10-30T04:29:47.317Z,95987.5
2022-10-30T04:30:49.537Z,95991.1
2022-10-30T04:31:52.385Z,95989.4
2022-10-30T04:32:55.384Z,95990.2
2022-10-30T04:33:58.086Z,95994.2
2022-10-30T04:35:00.308Z,95990.7
2022-10-30T04:36:02.489Z,95987.1
2022-10-30T04:37:04.411Z,95990.9
2022-10-30T04:38:06.051Z,95987.8
2022-10-30T04:39:08.530Z,95990.2
2022-10-30T04:40:10.837Z,95989.1
2022-10-30T04:41:12.760Z,95987.3
2022-10-30T04:42:14.695Z,95987.2
2022-10-30T04:43:16.885Z,95991.4
2022-10-30T04:44:19.376Z,95989
2022-10-30T04:45:21.851Z,95986.4
2022-10-30T04:46:24.055Z,95986.5
2022-10-30T04:47:26.211Z,95985.4
2022-10-30T04:48:28.803Z,95985.2
2022-10-30T04:49:30.714Z,95988.6
2022-10-30T04:50:33.235Z,95984.5
2022-10-30T04:51:35.139Z,95983.7
2022-10-30T04:52:37.314Z,95984.1
2022-10-30T04:53:39.505Z,95982.5
2022-10-30T04:54:41.977Z,95984.3
2022-10-30T04:55:44.245Z,95983.8
2022-10-30T04:56:46.195Z,95977.4
2022-10-30T04:57:48.405Z,95979.3
2022-10-30T04:58:50.327Z,95980.6
2022-10-30T04:59:52.526Z,95978.5
2022-10-30T05:02:00.811Z,95977.3
2022-10-30T05:03:03.241Z,95974.7
2022-10-30T05:04:05.709Z,95972.1
2022-10-30T05:05:07.903Z,95973.9
2022-10-30T05:06:10.395Z,95972.6
2022-10-30T05:07:12.865Z,95971
2022-10-30T05:08:15.034Z,95974.2
2022-10-30T05:09:17.234Z,95972.2
2022-10-30T05:10:19.162Z,95973.8
2022-10-30T05:11:20.854Z,95969
2022-10-30T05:12:22.473Z,95971.9
2022-10-30T05:13:24.973Z,95968.3
2022-10-30T05:14:27.160Z,95968.7
2022-10-30T05:15:29.640Z,95963
2022-10-30T05:16:31.253Z,95963.8
2022-10-30T05:17:33.768Z,95964.3
2022-10-30T05:18:35.697Z,95963
2022-10-30T05:19:37.894Z,95965.4
2022-10-30T05:20:40.377Z,95962.6
2022-10-30T05:21:42.310Z,95961.9
2022-10-30T05:22:44.487Z,95960.5
2022-10-30T05:23:46.441Z,95964.3
2022-10-30T05:24:48.654Z,95958.9
2022-10-30T05:25:50.853Z,95958.4
2022-10-30T05:26:53.098Z,95958.1
2022-10-30T05:27:55.388Z,95955.2
2022-10-30T05:28:58.296Z,95953.5
2022-10-30T05:30:00.495Z,95955.6
2022-10-30T05:31:02.969Z,95956
2022-10-30T05:32:05.498Z,95954.7
2022-10-30T05:33:08.039Z,95956
2022-10-30T05:34:10.239Z,95953
2022-10-30T05:35:12.439Z,95956.5
2022-10-30T05:36:14.863Z,95953.3
2022-10-30T05:37:17.066Z,95955.1
2022-10-30T05:38:19.268Z,95962.7
2022-10-30T05:39:21.478Z,95959.7
2022-10-30T05:40:23.978Z,95962.9
2022-10-30T05:41:26.476Z,95964.4
2022-10-30T05:42:29.017Z,95965.4
2022-10-30T05:43:31.499Z,95965
2022-10-30T05:45:38.982Z,95965.3
2022-10-30T05:46:41.591Z,95965.1
2022-10-30T05:47:43.853Z,95967.7
2022-10-30T05:48:46.116Z,95960.5
2022-10-30T05:49:48.590Z,95962.3
2022-10-30T05:50:50.805Z,95959.7
2022-10-30T05:51:53.027Z,95963
2022-10-30T05:52:54.704Z,95963.5
2022-10-30T05:53:56.894Z,95962.2
2022-10-30T05:54:58.823Z,95960
2022-10-30T05:56:01.014Z,95960.5
2022-10-30T05:57:03.484Z,95964.6
2022-10-30T05:58:06.045Z,95959.4
2022-10-30T05:59:07.668Z,95961.2
2022-10-30T06:00:09.876Z,95957.5
2022-10-30T06:01:12.079Z,95953.4
2022-10-30T06:02:14.512Z,95954.8
2022-10-30T06:03:17.054Z,95952.4
2022-10-30T06:04:19.526Z,95957.3
2022-10-30T06:05:22.007Z,95953.3
2022-10-30T06:06:24.199Z,95957.9
2022-10-30T06:07:26.402Z,95956
2022-10-30T06:08:28.352Z,95958.9
2022-10-30T06:09:30.546Z,95957.8
2022-10-30T06:10:32.739Z,95953.8
2022-10-30T06:11:34.943Z,95957
2022-10-30T06:12:37.142Z,95957.2
2022-10-30T06:13:39.399Z,95959.3
2022-10-30T06:14:41.306Z,95958.1
2022-10-30T06:15:43.816Z,95962.3
2022-10-30T06:16:45.461Z,95963.5
2022-10-30T06:17:47.948Z,95962.5
2022-10-30T06:18:50.448Z,95962.1
2022-10-30T06:19:52.941Z,95961.8
2022-10-30T06:20:55.118Z,95964.6
2022-10-30T06:21:57.597Z,95965.7
2022-10-30T06:22:59.513Z,95962.8
2022-10-30T06:24:02.037Z,95964.1
2022-10-30T06:25:04.560Z,95962.7
2022-10-30T06:26:06.764Z,95964.7
2022-10-30T06:27:08.956Z,95965.3
2022-10-30T06:28:11.435Z,95965.6
2022-10-30T06:29:13.686Z,95967.6
2022-10-30T06:30:16.180Z,95965.6
2022-10-30T06:32:20.554Z,95961.3
2022-10-30T06:33:22.756Z,95955.1
2022-10-30T06:34:25.243Z,95956.6
2022-10-30T06:35:26.880Z,95954.9
2022-10-30T06:36:29.083Z,95958.3
2022-10-30T06:37:31.280Z,95957.2
2022-10-30T06:38:33.457Z,95959.5
2022-10-30T06:39:35.736Z,95957.3
2022-10-30T06:40:38.216Z,95957.1
2022-10-30T06:41:40.412Z,95961.3
2022-10-30T06:42:42.887Z,95957
2022-10-30T06:43:44.841Z,95960.5
2022-10-30T06:44:47.117Z,95957.8
2022-10-30T06:45:49.588Z,95963.4
2022-10-30T06:46:52.086Z,95956.8
2022-10-30T06:47:54.295Z,95956.8
2022-10-30T06:48:55.679Z,95961.3
2022-10-30T06:49:57.959Z,95958
2022-10-30T06:51:00.164Z,95961.3
2022-10-30T06:52:02.382Z,95959
2022-10-30T06:53:04.304Z,95960.8
2022-10-30T06:54:05.953Z,95956.2
2022-10-30T06:55:08.439Z,95955.9
2022-10-30T06:56:10.925Z,95957.2
2022-10-30T06:57:12.832Z,95957.3
2022-10-30T06:58:15.038Z,95955.3
2022-10-30T06:59:16.952Z,95959.5
2022-10-30T07:00:19.217Z,95959
2022-10-30T07:01:21.635Z,95955.3
2022-10-30T07:02:24.825Z,95953.3
2022-10-30T07:03:27.455Z,95955.4
2022-10-30T07:04:29.948Z,95958.8
2022-10-30T07:05:31.870Z,95956.2
2022-10-30T07:06:33.790Z,95960.5
2022-10-30T07:07:35.715Z,95954.9
2022-10-30T07:08:38.198Z,95961.6
2022-10-30T07:09:40.389Z,95959.1
2022-10-30T07:10:42.616Z,95963
2022-10-30T07:11:45.085Z,95964.7
2022-10-30T07:12:47.572Z,95965
2022-10-30T07:13:49.775Z,95964.3
2022-10-30T07:14:52.245Z,95969.6
2022-10-30T07:15:54.237Z,95964.1
2022-10-30T07:16:56.418Z,95965.1
2022-10-30T07:18:00.577Z,95966.7
2022-10-30T07:20:08.433Z,95968.7
2022-10-30T07:21:10.631Z,95970.4
2022-10-30T07:22:12.832Z,95970.3
2022-10-30T07:23:15.313Z,95972.3
2022-10-30T07:24:17.784Z,95972.4
2022-10-30T07:25:20.181Z,95972.3
2022-10-30T07:26:22.679Z,95972.5
2022-10-30T07:27:25.161Z,95974.1
2022-10-30T07:28:27.359Z,95975.9
2022-10-30T07:29:29.572Z,95973
2022-10-30T07:30:32.049Z,95976.9
2022-10-30T07:32:39.576Z,95972.7
2022-10-30T07:33:41.791Z,95971
2022-10-30T07:34:43.985Z,95970.1
2022-10-30T07:35:46.455Z,95974.9
2022-10-30T07:36:48.928Z,95976.7
2022-10-30T07:37:51.143Z,95975.6
2022-10-30T07:38:53.635Z,95975
2022-10-30T07:39:56.509Z,95976.8
2022-10-30T07:40:58.423Z,95978.6
2022-10-30T07:42:00.638Z,95979
2022-10-30T07:43:04.510Z,95981.6
2022-10-30T07:44:07.001Z,95979.4
2022-10-30T07:46:12.548Z,95983
2022-10-30T07:47:14.524Z,95982.2
2022-10-30T07:48:17.093Z,95985.2
2022-10-30T07:49:19.369Z,95982.6
2022-10-30T07:50:21.966Z,95983.6
2022-10-30T07:51:23.906Z,95985.7
2022-10-30T07:52:25.960Z,95984.4
2022-10-30T07:53:28.158Z,95988.3
2022-10-30T07:54:30.122Z,95986.7
2022-10-30T07:55:32.608Z,95988
2022-10-30T07:56:35.082Z,95985.5
2022-10-30T07:57:37.579Z,95986.7
2022-10-30T07:59:44.715Z,95986.5
2022-10-30T08:00:46.461Z,95988.4
2022-10-30T08:01:49.532Z,95985.9
2022-10-30T08:02:52.799Z,95990.3
2022-10-30T08:03:55.797Z,95989.8
2022-10-30T08:04:57.740Z,95987.6
2022-10-30T08:05:59.688Z,95985.3
2022-10-30T08:07:02.300Z,95984
2022-10-30T08:08:04.509Z,95983.8
2022-10-30T08:09:06.729Z,95980.7
2022-10-30T08:10:09.237Z,95987.7
2022-10-30T08:11:10.878Z,95982.9
2022-10-30T08:12:13.363Z,95984.9
2022-10-30T08:13:15.588Z,95982.4
2022-10-30T08:14:17.516Z,95985.3
2022-10-30T08:15:20.042Z,95979.2
2022-10-30T08:16:22.524Z,95985.8
2022-10-30T08:17:24.739Z,95978.5
2022-10-30T08:18:27.278Z,95982
2022-10-30T08:19:29.555Z,95977.3
2022-10-30T08:20:32.047Z,95979.8
2022-10-30T08:21:33.973Z,95975.9
2022-10-30T08:22:36.184Z,95975.6
2022-10-30T08:23:37.551Z,95976.6
2022-10-30T08:24:39.770Z,95969.3
2022-10-30T08:25:41.992Z,95976.3
2022-10-30T08:26:44.171Z,95970.6
2022-10-30T08:27:46.678Z,95970.8
2022-10-30T08:28:48.646Z,95974.1
2022-10-30T08:29:50.856Z,95973
2022-10-30T08:30:52.756Z,95970.3
2022-10-30T08:31:54.409Z,95971.6
2022-10-30T08:32:57.996Z,95968.6
2022-10-30T08:34:00.201Z,95970.1
2022-10-30T08:35:02.773Z,95973.2
2022-10-30T08:36:05.286Z,95965.8
2022-10-30T08:37:07.217Z,95970.4
2022-10-30T08:38:09.434Z,95974.4
2022-10-30T08:39:11.914Z,95970.3
2022-10-30T08:40:14.129Z,95973.8
2022-10-30T08:41:16.333Z,95972.6
2022-10-30T08:42:18.814Z,95972.7
2022-10-30T08:43:21.053Z,95974.2
2022-10-30T08:44:23.293Z,95973.3
2022-10-30T08:46:30.771Z,95971.6
2022-10-30T08:47:33.329Z,95968.6
2022-10-30T08:48:35.867Z,95974.3
2022-10-30T08:49:38.089Z,95973.3
2022-10-30T08:50:40.349Z,95971.2
2022-10-30T08:51:42.596Z,95975.3
2022-10-30T08:52:44.794Z,95971.7
2022-10-30T08:53:51.479Z,95968.8
2022-10-30T08:54:53.958Z,95969.8
2022-10-30T08:55:56.164Z,95971.6
2022-10-30T08:56:58.646Z,95972.6
2022-10-30T08:58:01.157Z,95970.4
2022-10-30T08:59:02.837Z,95969.6
2022-10-30T09:00:05.065Z,95970.6
2022-10-30T09:01:07.635Z,95969.5
2022-10-30T09:02:10.622Z,95971.5
2022-10-30T09:03:12.827Z,95971.3
2022-10-30T09:04:14.741Z,95967.5
2022-10-30T09:05:16.967Z,95967.3
2022-10-30T09:06:19.509Z,95966.1
2022-10-30T09:07:22.155Z,95963.4
2022-10-30T09:08:24.065Z,95963.6
2022-10-30T09:09:26.551Z,95966.4
2022-10-30T09:10:29.085Z,95963
2022-10-30T09:11:31.595Z,95963
2022-10-30T09:12:34.087Z,95963.5
2022-10-30T09:13:36.559Z,95963.1
2022-10-30T09:14:38.772Z,95965.3
2022-10-30T09:15:40.996Z,95964.1
2022-10-30T09:16:43.477Z,95966.2
2022-10-30T09:17:45.403Z,95966.7
2022-10-30T09:18:47.309Z,95971.8
2022-10-30T09:19:49.920Z,95967.7
2022-10-30T09:20:51.843Z,95969.3
2022-10-30T09:21:54.410Z,95969.8
2022-10-30T09:22:58.765Z,95971.2
2022-10-30T09:24:01.710Z,95967.8
2022-10-30T09:25:04.182Z,95968
2022-10-30T09:26:06.664Z,95964.3
2022-10-30T09:27:08.860Z,95965.2
2022-10-30T09:28:11.344Z,95965
2022-10-30T09:29:13.243Z,95965.8
2022-10-30T09:30:15.457Z,95965.5
2022-10-30T09:31:17.681Z,95959.6
2022-10-30T09:32:20.184Z,95964.5
2022-10-30T09:33:22.403Z,95961.1
2022-10-30T09:34:24.341Z,95965.5
2022-10-30T09:35:27.102Z,95964.5
2022-10-30T09:36:29.588Z,95966
2022-10-30T09:37:32.137Z,95966
2022-10-30T09:38:34.097Z,95967.1
2022-10-30T09:39:36.572Z,95968.4
2022-10-30T09:40:38.218Z,95964.8
2022-10-30T09:41:40.426Z,95965.8
2022-10-30T09:42:42.916Z,95964.9
2022-10-30T09:43:45.090Z,95964.2
2022-10-30T09:45:52.014Z,95966.1
2022-10-30T09:46:54.209Z,95967.3
2022-10-30T09:47:58.145Z,95967.3
2022-10-30T09:49:01.341Z,95967.7
2022-10-30T09:50:03.634Z,95969
2022-10-30T09:51:05.837Z,95971.6
2022-10-30T09:52:08.030Z,95967.8
2022-10-30T09:53:10.297Z,95968.1
2022-10-30T09:54:12.503Z,95972.4
2022-10-30T09:55:14.716Z,95966.4
2022-10-30T09:56:17.127Z,95969
2022-10-30T09:57:19.041Z,95967.3
2022-10-30T09:58:21.235Z,95969.5
2022-10-30T09:59:23.738Z,95967.4
2022-10-30T10:00:26.240Z,95965.4
2022-10-30T10:01:29.209Z,95969.9
2022-10-30T10:02:32.582Z,95968.8
2022-10-30T10:03:35.132Z,95971.9
2022-10-30T10:04:37.614Z,95969.3
2022-10-30T10:05:39.546Z,95972
2022-10-30T10:06:41.746Z,95965.3
2022-10-30T10:07:43.104Z,95967.8
2022-10-30T10:08:45.393Z,95969.2
2022-10-30T10:09:47.910Z,95966.8
2022-10-30T10:10:49.904Z,95973.3
2022-10-30T10:11:52.624Z,95968.6
2022-10-30T10:13:59.822Z,95969
2022-10-30T10:15:01.746Z,95967.1
2022-10-30T10:16:04.217Z,95971.2
2022-10-30T10:17:06.702Z,95969.8
2022-10-30T10:18:09.199Z,95971.7
2022-10-30T10:19:11.121Z,95971.3
2022-10-30T10:20:13.319Z,95970
2022-10-30T10:21:15.806Z,95971.1
2022-10-30T10:22:18.011Z,95972.2
2022-10-30T10:23:20.241Z,95973.1
2022-10-30T10:24:22.791Z,95969.3
2022-10-30T10:25:25.337Z,95971.4
2022-10-30T10:26:27.808Z,95976.1
2022-10-30T10:27:30.290Z,95973.1
2022-10-30T10:29:37.782Z,95971
2022-10-30T10:30:40.277Z,95972
2022-10-30T10:31:42.772Z,95967.7
2022-10-30T10:32:45.303Z,95971.2
2022-10-30T10:33:47.537Z,95973.1
2022-10-30T10:34:54.513Z,95970.5
2022-10-30T10:35:56.442Z,95970.7
2022-10-30T10:36:58.646Z,95969.5
2022-10-30T10:38:02.618Z,95973.9
2022-10-30T10:39:05.136Z,95971.8
2022-10-30T10:40:07.405Z,95971.2
2022-10-30T10:41:09.912Z,95975.4
2022-10-30T10:42:12.149Z,95973.4
2022-10-30T10:43:14.624Z,95974.3
2022-10-30T10:44:17.101Z,95971.2
2022-10-30T10:45:19.291Z,95971.5
2022-10-30T10:46:21.527Z,95968.7
2022-10-30T10:47:24.030Z,95971.2
2022-10-30T10:48:26.257Z,95968.6
2022-10-30T10:49:28.784Z,95969
2022-10-30T10:50:30.997Z,95970.8
2022-10-30T10:51:33.504Z,95968.8
2022-10-30T10:52:35.134Z,95970.8
2022-10-30T10:53:37.341Z,95968.9
2022-10-30T10:54:39.259Z,95968.8
2022-10-30T10:55:41.826Z,95965.3
2022-10-30T10:56:44.315Z,95967.4
2022-10-30T10:57:46.797Z,95962.6
2022-10-30T10:58:49.276Z,95966.6
2022-10-30T10:59:51.758Z,95965
2022-10-30T11:00:54.064Z,95966.9
2022-10-30T11:01:56.950Z,95959.7
2022-10-30T11:03:01.509Z,95961.7
2022-10-30T11:04:05.017Z,95962.6
2022-10-30T11:05:07.537Z,95960.3
2022-10-30T11:06:09.765Z,95958.5
2022-10-30T11:07:12.251Z,95958.7
2022-10-30T11:08:14.459Z,95956.3
2022-10-30T11:09:16.953Z,95952.6
2022-10-30T11:10:18.582Z,95955.7
2022-10-30T11:11:21.131Z,95954.2
2022-10-30T11:12:23.632Z,95956.2
2022-10-30T11:13:25.851Z,95956
2022-10-30T11:14:28.049Z,95955
2022-10-30T11:15:30.538Z,95952.5
2022-10-30T11:16:33.594Z,95949.3
2022-10-30T11:17:35.803Z,95946.1
2022-10-30T11:18:37.701Z,95951.1
2022-10-30T11:19:40.186Z,95948.6
2022-10-30T11:20:42.132Z,95947
2022-10-30T11:21:44.634Z,95948
2022-10-30T11:22:46.556Z,95947.7
2022-10-30T11:23:48.220Z,95949.5
2022-10-30T11:24:50.711Z,95945.1
2022-10-30T11:25:53.197Z,95942.1
2022-10-30T11:26:55.458Z,95942
2022-10-30T11:27:57.400Z,95943.9
2022-10-30T11:28:59.374Z,95943
2022-10-30T11:30:01.322Z,95943.8
2022-10-30T11:31:03.832Z,95942.1
2022-10-30T11:32:05.765Z,95943.5
2022-10-30T11:33:08.252Z,95939.2
2022-10-30T11:34:10.750Z,95942
2022-10-30T11:35:13.272Z,95941.2
2022-10-30T11:36:16.899Z,95938.4
2022-10-30T11:37:19.106Z,95938
2022-10-30T11:38:21.576Z,95941
2022-10-30T11:39:23.800Z,95940.5
2022-10-30T11:40:25.440Z,95934.3
2022-10-30T11:41:27.656Z,95938.9
2022-10-30T11:42:30.461Z,95934.8
2022-10-30T11:43:32.993Z,95936.5
2022-10-30T11:44:35.215Z,95931.9
2022-10-30T11:45:37.144Z,95929
2022-10-30T11:46:39.342Z,95932
2022-10-30T11:47:41.547Z,95927.5
2022-10-30T11:48:44.046Z,95928.3
2022-10-30T11:49:45.965Z,95925.8
2022-10-30T11:50:48.446Z,95927.9
2022-10-30T11:51:51.179Z,95929.9
2022-10-30T11:52:53.102Z,95924
2022-10-30T11:53:55.035Z,95923.3
2022-10-30T11:54:57.508Z,95922.8
2022-10-30T11:55:59.747Z,95923.9
2022-10-30T11:57:01.953Z,95921.9
2022-10-30T11:58:04.626Z,95923.9
2022-10-30T11:59:06.857Z,95920.1
2022-10-30T12:00:09.091Z,95916.6
2022-10-30T12:01:10.987Z,95914.4
2022-10-30T12:02:13.870Z,95913.5
2022-10-30T12:03:16.604Z,95915
2022-10-30T12:04:19.082Z,95914.6
2022-10-30T12:05:21.027Z,95911.1
2022-10-30T12:06:23.540Z,95914.1
2022-10-30T12:07:25.513Z,95911.3
2022-10-30T12:08:27.176Z,95912.2
2022-10-30T12:09:29.127Z,95912.1
2022-10-30T12:10:31.330Z,95911.6
2022-10-30T12:11:33.536Z,95907.3
2022-10-30T12:12:35.739Z,95911.7
2022-10-30T12:13:37.717Z,95905.5
2022-10-30T12:14:39.662Z,95904.8
2022-10-30T12:15:41.592Z,95908.9
2022-10-30T12:16:44.085Z,95905.3
2022-10-30T12:17:46.292Z,95903.3
2022-10-30T12:18:48.790Z,95901.9
2022-10-30T12:19:51.298Z,95901.7
2022-10-30T12:20:53.809Z,95898.5
2022-10-30T12:21:56.290Z,95896.5
2022-10-30T12:23:00.478Z,95898.5
2022-10-30T12:24:03.676Z,95889.8
2022-10-30T12:25:05.868Z,95891
2022-10-30T12:26:08.074Z,95887.3
2022-10-30T12:27:10.282Z,95886.4
2022-10-30T12:28:12.776Z,95882.7
2022-10-30T12:29:15.357Z,95881.7
2022-10-30T12:30:18.183Z,95883.1
2022-10-30T12:31:20.654Z,95881
2022-10-30T12:32:22.860Z,95880.3
2022-10-30T12:33:25.340Z,95880.7
2022-10-30T12:34:27.842Z,95882.2
2022-10-30T12:35:30.046Z,95881.4
2022-10-30T12:36:32.533Z,95876.5
2022-10-30T12:37:35.013Z,95876
2022-10-30T12:38:37.522Z,95873.5
2022-10-30T12:39:39.493Z,95874.4
2022-10-30T12:40:41.427Z,95874
2022-10-30T12:41:43.620Z,95872
2022-10-30T12:42:45.838Z,95874
2022-10-30T12:43:48.313Z,95874.9
2022-10-30T12:44:50.876Z,95870.3
2022-10-30T12:45:53.395Z,95869.6
2022-10-30T12:46:55.576Z,95873
2022-10-30T12:47:59.463Z,95872.5
2022-10-30T12:49:02.498Z,95870.2
2022-10-30T12:51:08.670Z,95871.9
2022-10-30T12:52:10.863Z,95874.4